Time;durP1;ratioP1;P1;durP2;ratioP2;P2;SDS_P1;SDS_P2;PMS_P1;PMS_P2;Temp;Humidity;BMP_temperature;BMP_pressure;BME280_temperature;BME280_humidity;BME280_pressure;Samples;Min_cycle;Max_cycle;Signal;HPM_P1;HPM_P2
2023/04/25 00:01:51;;;;;;;10.88;7.70;;;;;;;18.50;49.13;101217.06;5027653;28;20352;-35
2023/04/25 00:04:17;;;;;;;11.50;7.20;;;;;;;18.50;48.75;101205.47;5027774;28;20433;-34
2023/04/25 00:06:45;;;;;;;9.02;6.43;;;;;;;18.48;48.47;101204.78;5034212;28;20049;-35
2023/04/25 00:09:11;;;;;;;10.02;6.75;;;;;;;18.49;48.97;101201.09;5030854;28;20069;-33
2023/04/25 00:11:38;;;;;;;9.13;6.20;;;;;;;18.47;48.78;101208.47;5027266;28;20041;-33
2023/04/25 00:14:04;;;;;;;10.35;6.82;;;;;;;18.46;48.96;101202.25;5029935;28;20356;-33
2023/04/25 00:16:33;;;;;;;9.38;6.60;;;;;;;18.44;48.64;101208.75;5026702;28;21280;-33
2023/04/25 00:19:02;;;;;;;9.05;5.68;;;;;;;18.41;49.27;101211.72;5029416;28;20075;-33
2023/04/25 00:21:28;;;;;;;10.63;6.38;;;;;;;18.38;48.74;101214.72;5028164;28;20129;-33
2023/04/25 00:23:55;;;;;;;9.20;6.55;;;;;;;18.33;48.94;101216.97;5030707;28;20053;-35
2023/04/25 00:26:22;;;;;;;12.30;6.75;;;;;;;18.29;48.96;101218.25;5028378;28;20650;-33
2023/04/25 00:28:49;;;;;;;10.63;6.50;;;;;;;18.30;49.37;101219.97;5038986;28;20460;-33
2023/04/25 00:31:15;;;;;;;10.27;6.35;;;;;;;18.33;49.43;101223.22;5028833;28;20136;-34
2023/04/25 00:33:42;;;;;;;9.80;5.80;;;;;;;18.37;49.26;101227.28;5030950;28;20128;-33
2023/04/25 00:36:09;;;;;;;9.68;5.93;;;;;;;18.43;49.07;101225.84;5026747;28;20365;-34
2023/04/25 00:38:36;;;;;;;10.02;6.10;;;;;;;18.47;48.86;101224.56;5026726;28;20049;-33
2023/04/25 00:41:04;;;;;;;9.05;5.90;;;;;;;18.51;48.65;101223.28;5028877;28;20041;-33
2023/04/25 00:43:32;;;;;;;8.68;5.45;;;;;;;18.55;48.99;101221.16;5030072;28;20350;-34
2023/04/25 00:46:00;;;;;;;7.80;5.13;;;;;;;18.58;48.60;101220.84;5025746;28;20461;-34
2023/04/25 00:48:27;;;;;;;10.35;5.80;;;;;;;18.58;48.48;101224.38;5028362;28;20091;-33
2023/04/25 00:50:56;;;;;;;7.97;5.43;;;;;;;18.59;48.59;101226.06;5028169;28;20085;-34
2023/04/25 00:53:24;;;;;;;8.52;5.40;;;;;;;18.58;48.45;101224.38;5030621;28;20048;-34
2023/04/25 00:55:51;;;;;;;10.07;6.20;;;;;;;18.58;48.94;101220.84;5027672;28;20051;-33
2023/04/25 00:58:19;;;;;;;7.95;4.80;;;;;;;18.55;48.57;101224.66;5028926;28;20345;-33
2023/04/25 01:00:47;;;;;;;6.90;4.45;;;;;;;18.53;48.67;101215.06;5026295;28;20089;-33
2023/04/25 01:03:19;;;;;;;9.15;5.15;;;;;;;18.50;48.77;101233.16;5026857;28;20051;-33
2023/04/25 01:05:47;;;;;;;8.05;5.00;;;;;;;18.47;48.48;101229.94;5026683;28;20053;-33
2023/04/25 01:08:14;;;;;;;8.50;5.43;;;;;;;18.43;48.49;101231.22;5028178;28;20053;-34
2023/04/25 01:10:42;;;;;;;8.35;4.68;;;;;;;18.37;48.59;101223.72;5027823;28;20144;-35
2023/04/25 01:13:09;;;;;;;9.05;5.10;;;;;;;18.31;49.11;101227.88;5029372;28;20136;-34
2023/04/25 01:15:35;;;;;;;7.75;4.55;;;;;;;18.24;49.16;101227.59;5027942;28;20045;-34
2023/04/25 01:18:05;;;;;;;8.27;4.53;;;;;;;18.16;48.97;101227.47;5027955;28;20048;-34
2023/04/25 01:20:32;;;;;;;9.13;4.95;;;;;;;18.09;49.39;101225.50;5029199;28;20045;-35
2023/04/25 01:23:00;;;;;;;9.18;5.03;;;;;;;18.02;49.18;101227.94;5034667;28;20060;-35
2023/04/25 01:25:26;;;;;;;8.48;4.45;;;;;;;17.94;49.77;101231.34;5032236;28;20049;-37
2023/04/25 01:27:53;;;;;;;6.82;4.45;;;;;;;17.88;49.51;101241.78;5034133;28;20045;-34
2023/04/25 01:30:20;;;;;;;6.90;4.45;;;;;;;17.83;49.79;101241.38;5034424;28;20053;-34
2023/04/25 01:32:47;;;;;;;8.15;4.80;;;;;;;17.75;49.77;101245.59;5035605;28;20053;-34
2023/04/25 01:35:14;;;;;;;7.10;4.35;;;;;;;17.69;49.98;101245.31;5033046;28;20085;-33
2023/04/25 01:37:42;;;;;;;8.38;4.10;;;;;;;17.63;50.33;101245.88;5034525;28;20049;-33
2023/04/25 01:40:11;;;;;;;8.20;4.18;;;;;;;17.57;50.00;101249.09;5035235;28;20057;-34
2023/04/25 01:42:40;;;;;;;8.18;4.18;;;;;;;17.49;50.33;101248.00;5028898;28;20055;-33
2023/04/25 01:45:08;;;;;;;8.43;4.55;;;;;;;17.45;50.19;101245.72;5028840;28;20088;-33
2023/04/25 01:47:35;;;;;;;6.85;4.25;;;;;;;17.40;50.85;101250.63;5026772;28;20452;-33
2023/04/25 01:50:07;;;;;;;7.10;4.15;;;;;;;17.35;51.11;101255.59;5028207;28;20085;-35
2023/04/25 01:52:34;;;;;;;7.78;4.28;;;;;;;17.31;50.42;101254.16;5028078;28;20061;-33
2023/04/25 01:55:01;;;;;;;6.65;4.00;;;;;;;17.25;51.35;101261.78;5034359;28;20049;-33
2023/04/25 01:57:28;;;;;;;14.27;4.68;;;;;;;17.22;50.54;101264.72;5031610;28;20132;-33
2023/04/25 02:00:03;;;;;;;6.28;4.00;;;;;;;17.20;51.04;101274.72;5028723;28;20049;-33
2023/04/25 02:02:29;;;;;;;7.20;4.00;;;;;;;17.24;50.58;101265.41;5034148;28;20045;-33
2023/04/25 02:04:56;;;;;;;7.22;4.13;;;;;;;17.32;51.14;101270.09;5034997;28;20145;-34
2023/04/25 02:07:23;;;;;;;6.55;4.43;;;;;;;17.42;50.78;101265.59;5029616;28;20140;-33
2023/04/25 02:09:49;;;;;;;8.90;4.05;;;;;;;17.56;50.65;101271.53;5036078;28;20058;-33
2023/04/25 02:12:16;;;;;;;5.97;3.90;;;;;;;17.66;50.42;101273.25;5036773;28;20049;-34
2023/04/25 02:14:42;;;;;;;8.98;4.40;;;;;;;17.78;50.09;101267.78;5037151;28;20379;-33
2023/04/25 02:17:09;;;;;;;6.68;3.97;;;;;;;17.88;49.77;101271.28;5034349;28;20403;-33
2023/04/25 02:19:36;;;;;;;7.47;3.65;;;;;;;17.97;49.61;101270.44;5040247;28;20064;-34
2023/04/25 02:22:03;;;;;;;6.22;4.15;;;;;;;18.04;49.38;101276.06;5036668;28;20049;-34
2023/04/25 02:24:29;;;;;;;6.60;3.55;;;;;;;18.08;49.28;101275.63;5036471;28;20079;-36
2023/04/25 02:26:56;;;;;;;6.13;4.15;;;;;;;18.12;49.04;101269.00;5036808;28;20049;-34
2023/04/25 02:29:23;;;;;;;7.25;3.60;;;;;;;18.14;49.27;101263.50;5037702;28;20405;-34
2023/04/25 02:31:49;;;;;;;6.15;3.80;;;;;;;18.16;49.25;101270.41;5034147;28;20056;-34
2023/04/25 02:34:16;;;;;;;6.18;3.72;;;;;;;18.17;49.00;101263.19;5037764;28;20107;-34
2023/04/25 02:36:43;;;;;;;6.90;3.92;;;;;;;18.16;49.11;101267.72;5038884;28;20048;-33
2023/04/25 02:39:10;;;;;;;5.95;3.42;;;;;;;18.15;48.85;101274.06;5037938;28;20137;-33
2023/04/25 02:41:37;;;;;;;5.38;3.50;;;;;;;18.15;48.93;101273.22;5036194;28;20404;-35
2023/04/25 02:44:03;;;;;;;5.78;3.20;;;;;;;18.12;48.57;101276.19;5038228;28;20083;-35
2023/04/25 02:46:30;;;;;;;6.88;3.47;;;;;;;18.08;48.86;101275.63;5037774;28;20683;-34
2023/04/25 02:49:05;;;;;;;6.43;3.50;;;;;;;18.04;48.93;101278.75;5036840;28;20049;-35
2023/04/25 02:51:32;;;;;;;4.65;3.03;;;;;;;17.98;49.22;101275.66;5033402;28;20049;-35
2023/04/25 02:53:59;;;;;;;5.95;3.10;;;;;;;17.92;48.93;101278.91;5038407;28;20053;-35
2023/04/25 02:56:26;;;;;;;5.80;3.47;;;;;;;17.87;49.29;101275.81;5036960;28;20076;-35
2023/04/25 02:58:53;;;;;;;5.20;3.00;;;;;;;17.82;49.33;101283.44;5035122;28;20135;-35
2023/04/25 03:01:20;;;;;;;6.20;3.35;;;;;;;17.76;49.09;101275.94;5030726;28;20128;-37
2023/04/25 03:03:46;;;;;;;5.15;3.10;;;;;;;17.70;49.22;101282.69;5031482;28;20716;-37
2023/04/25 03:06:14;;;;;;;5.40;3.05;;;;;;;17.64;49.58;101288.59;5030469;28;20053;-35
2023/04/25 03:08:41;;;;;;;5.82;3.33;;;;;;;17.58;49.92;101289.19;5030929;28;20144;-35
2023/04/25 03:11:07;;;;;;;4.70;3.40;;;;;;;17.54;49.94;101322.59;5032598;28;20433;-35
2023/04/25 03:13:34;;;;;;;4.85;3.17;;;;;;;17.49;49.68;101322.19;5038417;28;20046;-35
2023/04/25 03:16:00;;;;;;;6.22;3.30;;;;;;;17.44;50.19;101325.25;5033448;28;20148;-34
2023/04/25 03:18:27;;;;;;;5.50;3.22;;;;;;;17.38;50.05;101315.09;5034219;28;20049;-34
2023/04/25 03:20:54;;;;;;;6.57;3.00;;;;;;;17.35;50.23;101309.16;5029261;28;20500;-34
2023/04/25 03:23:21;;;;;;;4.72;2.70;;;;;;;17.28;50.27;101309.69;5027401;28;20058;-33
2023/04/25 03:25:47;;;;;;;5.40;2.88;;;;;;;17.23;50.39;101300.41;5029313;28;20053;-33
2023/04/25 03:28:14;;;;;;;5.35;2.75;;;;;;;17.19;50.92;101298.97;5030079;28;20045;-34
2023/04/25 03:30:41;;;;;;;5.05;2.60;;;;;;;17.16;50.75;101297.41;5035693;28;20076;-34
2023/04/25 03:33:07;;;;;;;4.78;2.90;;;;;;;17.12;51.03;101295.97;5032689;28;20087;-34
2023/04/25 03:35:34;;;;;;;6.03;2.72;;;;;;;17.09;51.03;101296.28;5033261;28;20461;-34
2023/04/25 03:38:00;;;;;;;4.28;2.85;;;;;;;17.07;51.05;101292.88;5030511;28;20049;-33
2023/04/25 03:40:27;;;;;;;5.70;2.58;;;;;;;17.06;50.65;101301.06;5032583;28;20057;-33
2023/04/25 03:42:53;;;;;;;6.25;2.88;;;;;;;17.06;50.87;101298.38;5033839;28;20128;-34
2023/04/25 03:45:20;;;;;;;5.30;3.03;;;;;;;17.03;50.63;101300.31;5028963;28;20041;-34
2023/04/25 03:47:46;;;;;;;3.83;2.85;;;;;;;17.02;50.62;101301.31;5030902;28;20352;-34
2023/04/25 03:50:13;;;;;;;4.60;2.47;;;;;;;17.05;50.73;101302.91;5033255;28;20049;-33
2023/04/25 03:52:40;;;;;;;5.60;2.67;;;;;;;17.13;51.16;101296.84;5026503;28;20393;-34
2023/04/25 03:55:07;;;;;;;4.22;2.72;;;;;;;17.22;50.51;101301.38;5030202;28;20060;-36
2023/04/25 03:57:33;;;;;;;3.83;2.22;;;;;;;17.34;50.06;101308.31;5027804;28;20424;-34
2023/04/25 04:00:00;;;;;;;3.95;2.83;;;;;;;17.45;49.87;101320.75;5027315;28;20345;-34
2023/04/25 04:02:26;;;;;;;3.85;2.25;;;;;;;17.55;50.21;101324.28;5037676;28;20063;-33
2023/04/25 04:04:53;;;;;;;3.40;2.30;;;;;;;17.65;49.81;101329.69;5030792;28;20148;-34
2023/04/25 04:07:20;;;;;;;4.47;2.65;;;;;;;17.73;49.56;101328.00;5030231;28;20048;-34
2023/04/25 04:09:47;;;;;;;4.15;2.50;;;;;;;17.80;49.47;101333.66;5031092;28;20400;-34
2023/04/25 04:12:13;;;;;;;5.40;2.58;;;;;;;17.85;49.18;101333.22;5032233;28;20052;-34
2023/04/25 04:14:40;;;;;;;4.47;2.83;;;;;;;17.90;49.26;101331.00;5034337;28;20061;-35
2023/04/25 04:17:06;;;;;;;4.57;2.35;;;;;;;17.92;49.04;101335.22;5024077;28;20049;-33
2023/04/25 04:19:33;;;;;;;3.53;2.20;;;;;;;17.94;49.04;101341.28;5031772;28;20045;-34
2023/04/25 04:22:00;;;;;;;5.22;2.78;;;;;;;17.95;49.45;101345.66;5028903;28;20041;-33
2023/04/25 04:24:26;;;;;;;3.92;2.30;;;;;;;17.94;48.70;101352.03;5033162;28;20339;-35
2023/04/25 04:26:53;;;;;;;5.55;2.50;;;;;;;17.93;48.70;101360.19;5033198;28;20049;-34
2023/04/25 04:29:22;;;;;;;2.47;1.80;;;;;;;17.90;49.09;101360.50;5036754;28;20172;-35
2023/04/25 04:31:50;;;;;;;4.50;2.17;;;;;;;17.87;49.00;101361.63;5033482;28;20078;-34
2023/04/25 04:34:18;;;;;;;4.93;2.58;;;;;;;17.82;49.29;101363.88;5036155;28;20095;-34
2023/04/25 04:36:46;;;;;;;4.63;2.38;;;;;;;17.78;49.37;101357.09;5033873;28;20056;-34
2023/04/25 04:39:13;;;;;;;6.03;2.60;;;;;;;17.72;49.06;101350.41;5035392;28;20048;-34
2023/04/25 04:41:40;;;;;;;3.90;2.10;;;;;;;17.68;49.50;101358.88;5037907;28;20072;-37
2023/04/25 04:44:08;;;;;;;4.90;2.50;;;;;;;17.62;49.45;101344.19;5039073;28;20047;-34
2023/04/25 04:46:37;;;;;;;4.47;2.25;;;;;;;17.57;49.30;101351.81;5035491;28;20049;-35
2023/04/25 04:49:17;;;;;;;3.80;2.38;;;;;;;17.50;49.39;101366.75;5039965;28;20050;-35
2023/04/25 04:51:46;;;;;;;2.35;1.90;;;;;;;17.47;49.79;101369.69;5033350;28;20481;-34
2023/04/25 04:54:13;;;;;;;7.13;2.65;;;;;;;17.42;49.40;101361.22;5026243;28;20064;-34
2023/04/25 04:56:40;;;;;;;4.18;2.42;;;;;;;17.38;50.00;101373.22;5037305;28;20355;-35
2023/04/25 04:59:07;;;;;;;3.10;2.00;;;;;;;17.35;49.91;101368.13;5037182;28;20045;-34
2023/04/25 05:01:37;;;;;;;4.18;2.50;;;;;;;17.30;50.27;101375.72;5035226;28;20327;-35
2023/04/25 05:04:03;;;;;;;3.97;2.03;;;;;;;17.24;49.83;101383.28;5029857;28;20053;-35
2023/04/25 05:06:31;;;;;;;3.40;2.10;;;;;;;17.20;50.32;101387.22;5038651;28;20056;-34
2023/04/25 05:08:57;;;;;;;4.78;2.33;;;;;;;17.17;50.84;101394.72;5028974;28;20057;-34
2023/04/25 05:11:27;;;;;;;4.00;2.30;;;;;;;17.13;50.42;101394.13;5032341;28;20048;-34
2023/04/25 05:13:54;;;;;;;6.07;2.50;;;;;;;17.09;50.81;101381.97;5031575;28;20455;-33
2023/04/25 05:16:20;;;;;;;4.07;2.20;;;;;;;17.06;50.55;101392.97;5032826;28;20063;-33
2023/04/25 05:18:47;;;;;;;3.38;2.08;;;;;;;17.03;50.87;101395.91;5035295;28;20049;-34
2023/04/25 05:21:14;;;;;;;2.78;1.92;;;;;;;17.01;50.88;101395.19;5034340;28;20050;-33
2023/04/25 05:23:40;;;;;;;4.78;2.67;;;;;;;16.99;50.65;101399.81;5032499;28;20675;-35
2023/04/25 05:26:13;;;;;;;4.50;2.63;;;;;;;16.97;50.84;101391.09;5035313;28;20057;-33
2023/04/25 05:28:41;;;;;;;5.93;1.98;;;;;;;16.98;50.46;101398.13;5030006;28;20443;-34
2023/04/25 05:31:10;;;;;;;4.55;2.50;;;;;;;16.98;50.88;101398.13;5026502;28;20368;-34
2023/04/25 05:33:36;;;;;;;4.93;2.22;;;;;;;16.98;50.49;101403.50;5032412;28;20182;-34
2023/04/25 05:36:03;;;;;;;4.50;2.47;;;;;;;17.00;50.58;101410.41;5034562;28;20049;-34
2023/04/25 05:38:30;;;;;;;4.25;2.20;;;;;;;17.00;50.46;101410.41;5032039;28;20042;-34
2023/04/25 05:41:00;;;;;;;3.85;2.40;;;;;;;17.02;50.69;101410.28;5029719;28;20053;-34
2023/04/25 05:43:26;;;;;;;3.97;2.20;;;;;;;17.05;50.35;101420.72;5030926;28;20532;-34
2023/04/25 05:45:53;;;;;;;4.57;2.35;;;;;;;17.06;50.13;101418.91;5035674;28;20045;-34
2023/04/25 05:48:20;;;;;;;3.47;2.25;;;;;;;17.08;50.64;101420.44;5028300;28;20237;-34
2023/04/25 05:50:46;;;;;;;2.95;2.10;;;;;;;17.09;50.51;101430.19;5030813;28;20057;-33
2023/04/25 05:53:13;;;;;;;5.30;2.35;;;;;;;17.11;50.61;101425.53;5031785;28;20467;-34
2023/04/25 05:55:39;;;;;;;4.20;1.90;;;;;;;17.13;50.00;101431.63;5030998;28;20050;-35
2023/04/25 05:58:06;;;;;;;3.67;2.42;;;;;;;17.13;49.84;101425.41;5032901;28;20627;-34
2023/04/25 06:00:33;;;;;;;3.30;1.98;;;;;;;17.15;50.45;101424.28;5036570;28;20322;-35
2023/04/25 06:03:03;;;;;;;3.55;2.20;;;;;;;17.17;50.28;101438.41;5034951;28;20050;-35
2023/04/25 06:05:30;;;;;;;4.15;2.17;;;;;;;17.19;50.10;101446.31;5034821;28;20064;-34
2023/04/25 06:07:57;;;;;;;4.00;2.30;;;;;;;17.19;49.83;101443.63;5031597;28;20128;-33
2023/04/25 06:10:23;;;;;;;4.57;2.28;;;;;;;17.19;49.84;101443.63;5026943;28;20132;-34
2023/04/25 06:12:50;;;;;;;4.07;2.05;;;;;;;17.20;49.85;101446.16;5034434;28;20050;-34
2023/04/25 06:15:16;;;;;;;3.90;2.13;;;;;;;17.20;50.08;101451.50;5034452;28;20520;-34
2023/04/25 06:17:54;;;;;;;6.15;2.40;;;;;;;17.25;50.08;101457.34;5033017;28;20049;-35
2023/04/25 06:20:23;;;;;;;2.58;1.90;;;;;;;17.28;50.23;101454.38;5031008;28;20041;-35
2023/04/25 06:22:51;;;;;;;2.83;2.15;;;;;;;17.34;50.09;101461.03;5035144;28;20124;-34
2023/04/25 06:25:18;;;;;;;5.53;2.20;;;;;;;17.38;50.61;101459.78;5036494;28;20111;-34
2023/04/25 06:27:44;;;;;;;3.72;1.90;;;;;;;17.44;50.20;101469.13;5032936;28;20037;-35
2023/04/25 06:30:15;;;;;;;3.17;1.95;;;;;;;17.48;50.20;101467.88;5034097;28;20467;-34
2023/04/25 06:32:41;;;;;;;3.90;2.10;;;;;;;17.52;50.05;101469.28;5034365;28;20233;-35
2023/04/25 06:35:08;;;;;;;3.47;2.30;;;;;;;17.57;49.68;101467.06;5032619;28;20053;-35
2023/04/25 06:37:35;;;;;;;5.40;2.15;;;;;;;17.61;49.81;101476.53;5030416;28;20042;-34
2023/04/25 06:40:02;;;;;;;2.70;1.65;;;;;;;17.67;50.01;101480.50;5039942;28;20049;-34
2023/04/25 06:42:28;;;;;;;3.60;1.80;;;;;;;17.70;49.20;101478.41;5039236;28;20125;-34
2023/04/25 06:44:55;;;;;;;2.60;1.80;;;;;;;17.74;49.05;101478.97;5034775;28;20124;-34
2023/04/25 06:47:22;;;;;;;3.38;1.65;;;;;;;17.76;49.28;101482.38;5032067;28;20049;-35
2023/04/25 06:49:49;;;;;;;3.50;2.08;;;;;;;17.80;49.01;101491.84;5033948;28;20224;-35
2023/04/25 06:52:17;;;;;;;5.57;2.10;;;;;;;17.81;49.06;101492.69;5035827;28;20055;-34
2023/04/25 06:54:45;;;;;;;2.95;1.75;;;;;;;17.82;48.85;101489.06;5004947;28;20341;-34
2023/04/25 06:57:11;;;;;;;4.10;1.92;;;;;;;17.82;48.40;101492.59;5035821;28;20448;-35
2023/04/25 06:59:38;;;;;;;4.85;1.85;;;;;;;17.82;48.51;101492.59;5035052;28;20045;-34
2023/04/25 07:02:05;;;;;;;3.78;2.25;;;;;;;17.83;48.60;101496.97;5030517;28;20050;-35
2023/04/25 07:04:32;;;;;;;4.97;2.10;;;;;;;17.82;48.89;101497.09;5034030;28;20060;-34
2023/04/25 07:07:00;;;;;;;5.07;2.30;;;;;;;17.81;48.85;101493.59;5030139;28;20049;-35
2023/04/25 07:09:27;;;;;;;4.13;2.13;;;;;;;17.81;48.88;101498.94;5034174;28;20420;-35
2023/04/25 07:11:53;;;;;;;3.47;2.30;;;;;;;17.80;48.95;101502.59;5038562;28;20136;-34
2023/04/25 07:14:20;;;;;;;4.70;2.58;;;;;;;17.78;49.21;101512.63;5034882;28;20397;-35
2023/04/25 07:16:47;;;;;;;4.88;2.53;;;;;;;17.75;48.99;101516.41;5032458;28;20124;-35
2023/04/25 07:19:13;;;;;;;5.70;2.40;;;;;;;17.73;48.64;101514.81;5036927;28;20049;-34
2023/04/25 07:21:40;;;;;;;4.82;2.13;;;;;;;17.69;48.98;101524.97;5039218;28;20088;-34
2023/04/25 07:24:07;;;;;;;5.72;2.50;;;;;;;17.64;49.69;101516.47;5036755;28;20056;-34
2023/04/25 07:26:33;;;;;;;7.85;3.05;;;;;;;17.62;49.48;101523.81;5034904;28;20345;-34
2023/04/25 07:29:00;;;;;;;6.28;3.47;;;;;;;17.59;49.57;101521.38;5052475;28;20056;-34
2023/04/25 07:31:26;;;;;;;9.18;3.03;;;;;;;17.57;49.21;101528.72;5037248;28;20459;-35
2023/04/25 07:33:53;;;;;;;7.00;3.53;;;;;;;17.57;49.71;101525.16;5032890;28;20053;-34
2023/04/25 07:36:20;;;;;;;7.95;2.97;;;;;;;17.56;49.52;101532.38;5031776;28;20045;-34
2023/04/25 07:38:47;;;;;;;7.22;3.10;;;;;;;17.55;49.37;101525.31;5039723;28;20122;-35
2023/04/25 07:41:14;;;;;;;11.25;3.35;;;;;;;17.54;49.78;101530.81;5038547;28;20049;-34
2023/04/25 07:43:40;;;;;;;8.43;2.97;;;;;;;17.55;49.83;101535.19;5037685;28;20055;-34
2023/04/25 07:46:07;;;;;;;6.75;3.17;;;;;;;17.56;49.74;101537.72;5033545;28;20325;-34
2023/04/25 07:48:33;;;;;;;7.32;3.20;;;;;;;17.58;49.29;101538.47;5036129;28;20102;-35
2023/04/25 07:51:00;;;;;;;6.35;2.55;;;;;;;17.59;49.76;101544.66;5039920;28;20041;-35
2023/04/25 07:53:27;;;;;;;7.95;2.95;;;;;;;17.61;49.86;101540.88;5039087;28;20119;-34
2023/04/25 07:55:53;;;;;;;5.20;2.72;;;;;;;17.62;49.70;101550.59;5036051;28;20504;-35
2023/04/25 07:58:21;;;;;;;4.88;2.38;;;;;;;17.63;49.74;101552.31;5037822;28;20340;-35
2023/04/25 08:00:48;;;;;;;4.68;2.67;;;;;;;17.65;49.79;101553.03;5034446;28;20045;-35
2023/04/25 08:03:15;;;;;;;8.52;2.45;;;;;;;17.65;49.73;101550.34;5033714;28;20049;-33
2023/04/25 08:05:42;;;;;;;9.40;2.97;;;;;;;17.66;49.59;101549.34;5032839;28;20392;-34
2023/04/25 08:08:09;;;;;;;4.38;2.55;;;;;;;17.68;49.41;101552.75;5033787;28;20081;-33
2023/04/25 08:10:36;;;;;;;6.15;2.47;;;;;;;17.69;49.50;101562.50;5033318;28;20496;-34
2023/04/25 08:13:02;;;;;;;5.40;2.30;;;;;;;17.70;49.50;101561.50;5033815;28;20067;-34
2023/04/25 08:15:29;;;;;;;5.10;2.08;;;;;;;17.71;49.34;101565.03;5033933;28;20139;-34
2023/04/25 08:17:56;;;;;;;6.90;2.65;;;;;;;17.73;49.71;101558.56;5036344;28;20045;-34
2023/04/25 08:20:22;;;;;;;4.53;2.45;;;;;;;17.73;49.49;101566.63;5034842;28;20053;-34
2023/04/25 08:22:49;;;;;;;8.98;2.65;;;;;;;17.75;49.69;101575.38;5038915;28;20059;-34
2023/04/25 08:25:16;;;;;;;4.88;2.40;;;;;;;17.76;49.50;101570.88;5033065;28;20437;-34
2023/04/25 08:27:43;;;;;;;3.92;2.38;;;;;;;17.79;49.47;101585.84;5037729;28;20064;-34
2023/04/25 08:30:10;;;;;;;4.32;2.53;;;;;;;17.79;49.53;101591.22;5036089;28;20060;-34
2023/04/25 08:32:39;;;;;;;5.72;2.53;;;;;;;17.81;49.29;101584.75;5037859;28;20418;-35
2023/04/25 08:35:06;;;;;;;8.70;2.50;;;;;;;17.82;49.44;101580.22;5033167;28;20037;-34
2023/04/25 08:37:33;;;;;;;4.07;1.83;;;;;;;17.84;49.47;101588.97;5031847;28;20759;-34
2023/04/25 08:40:00;;;;;;;5.45;2.38;;;;;;;17.86;49.20;101589.72;5029832;28;20049;-34
2023/04/25 08:42:28;;;;;;;5.50;2.03;;;;;;;17.88;49.44;101591.25;5033211;28;20053;-34
2023/04/25 08:44:56;;;;;;;3.60;2.00;;;;;;;17.90;49.53;101588.44;5032592;28;20084;-34
2023/04/25 08:47:23;;;;;;;4.15;2.20;;;;;;;17.92;49.70;101594.50;5032518;28;20085;-36
2023/04/25 08:49:53;;;;;;;3.22;1.95;;;;;;;17.93;49.09;101604.25;5032247;28;20096;-33
2023/04/25 08:52:27;;;;;;;3.92;1.67;;;;;;;17.95;48.55;101611.19;5034509;28;20041;-34
2023/04/25 08:54:55;;;;;;;4.68;2.00;;;;;;;17.95;48.59;101621.91;5032882;28;20123;-34
2023/04/25 08:57:22;;;;;;;5.60;2.17;;;;;;;17.96;48.87;101628.13;5031548;28;20128;-34
2023/04/25 08:59:49;;;;;;;3.35;1.88;;;;;;;17.93;48.76;101621.22;5033756;28;20064;-34
2023/04/25 09:02:17;;;;;;;4.60;2.15;;;;;;;17.96;49.09;101631.66;5029657;28;20155;-35
2023/04/25 09:04:45;;;;;;;4.22;1.75;;;;;;;17.97;48.98;101629.84;5037137;28;20123;-34
2023/04/25 09:07:12;;;;;;;3.83;1.80;;;;;;;18.00;49.27;101637.59;5039907;28;20104;-35
2023/04/25 09:09:39;;;;;;;6.45;2.13;;;;;;;18.04;49.25;101635.50;5035623;28;20132;-34
2023/04/25 09:12:06;;;;;;;4.00;1.83;;;;;;;18.06;49.14;101631.72;5035660;28;20173;-34
2023/04/25 09:14:32;;;;;;;4.38;1.90;;;;;;;18.10;49.41;101637.66;5034873;28;20045;-35
2023/04/25 09:17:01;;;;;;;3.78;1.88;;;;;;;18.13;48.83;101638.25;5027393;28;20394;-35
2023/04/25 09:19:30;;;;;;;2.17;1.40;;;;;;;18.15;48.96;101647.00;5029920;28;20046;-34
2023/04/25 09:22:07;;;;;;;4.45;1.73;;;;;;;18.18;48.65;101652.09;5032166;28;20049;-34
2023/04/25 09:24:38;;;;;;;4.00;2.17;;;;;;;18.21;48.30;101657.22;5031313;28;20059;-34
2023/04/25 09:27:06;;;;;;;3.28;1.67;;;;;;;18.22;48.31;101666.94;5035702;28;20575;-34
2023/04/25 09:29:36;;;;;;;4.15;1.98;;;;;;;18.24;48.14;101659.59;5033694;28;20324;-35
2023/04/25 09:32:15;;;;;;;7.75;2.00;;;;;;;18.25;47.98;101655.94;5041674;28;20137;-35
2023/04/25 09:34:50;;;;;;;3.22;1.95;;;;;;;18.28;48.01;101680.81;5025398;28;20049;-35
2023/04/25 09:37:20;;;;;;;4.25;1.75;;;;;;;18.28;48.07;101694.22;5033828;28;20096;-35
2023/04/25 09:39:52;;;;;;;2.92;1.55;;;;;;;18.27;47.81;101689.84;5031703;28;20133;-34
2023/04/25 09:42:23;;;;;;;3.75;1.80;;;;;;;18.24;48.09;101699.84;5029579;28;20136;-34
2023/04/25 09:44:53;;;;;;;2.72;1.40;;;;;;;18.21;47.68;101693.91;5025568;28;20119;-34
2023/04/25 09:47:22;;;;;;;2.60;1.33;;;;;;;18.18;48.05;101692.34;5031662;28;20056;-34
2023/04/25 09:49:49;;;;;;;2.92;1.42;;;;;;;18.15;47.96;101697.97;5028546;28;20103;-35
2023/04/25 09:52:21;;;;;;;3.38;1.45;;;;;;;18.12;48.02;101697.41;5029340;28;20057;-34
2023/04/25 09:54:51;;;;;;;2.30;1.42;;;;;;;18.11;48.53;101698.38;5036559;28;20118;-34
2023/04/25 09:57:22;;;;;;;3.40;1.42;;;;;;;18.09;48.33;101705.69;5034423;28;20409;-35
2023/04/25 09:59:53;;;;;;;2.63;1.20;;;;;;;18.08;48.22;101706.69;5037072;28;20080;-35
2023/04/25 10:02:22;;;;;;;3.58;1.67;;;;;;;18.08;48.41;101710.22;5027045;28;20615;-35
2023/04/25 10:04:52;;;;;;;2.47;1.13;;;;;;;18.09;48.29;101720.00;5035263;28;20049;-35
2023/04/25 10:07:21;;;;;;;2.65;1.40;;;;;;;18.10;48.37;101719.00;5034938;28;20042;-34
2023/04/25 10:09:51;;;;;;;1.60;1.10;;;;;;;18.11;48.98;101715.31;5026692;28;20146;-35
2023/04/25 10:12:19;;;;;;;2.75;1.58;;;;;;;18.14;48.90;101715.06;5036903;28;20037;-34
2023/04/25 10:14:47;;;;;;;2.90;1.10;;;;;;;18.15;48.54;101711.41;5038960;28;20148;-38
2023/04/25 10:17:14;;;;;;;2.92;1.20;;;;;;;18.19;49.02;101720.03;5036867;28;20044;-34
2023/04/25 10:19:40;;;;;;;4.25;1.27;;;;;;;18.21;48.42;101713.56;5042719;28;20129;-34
2023/04/25 10:22:20;;;;;;;3.65;1.23;;;;;;;18.25;47.87;101720.34;5034068;28;20045;-34
2023/04/25 10:24:47;;;;;;;2.38;1.30;;;;;;;18.31;48.05;101710.06;5040795;28;20061;-34
2023/04/25 10:27:14;;;;;;;1.42;0.85;;;;;;;18.34;48.00;101715.16;5039947;28;20136;-33
2023/04/25 10:29:43;;;;;;;2.92;1.30;;;;;;;18.39;47.68;101720.97;5032158;28;20076;-34
2023/04/25 10:32:09;;;;;;;2.67;1.20;;;;;;;18.42;47.63;101709.97;5036300;28;20360;-35
2023/04/25 10:34:40;;;;;;;1.52;0.82;;;;;;;18.46;47.75;101714.94;5033272;28;20049;-35
2023/04/25 10:37:11;;;;;;;3.40;1.25;;;;;;;18.54;47.60;101713.41;5039973;28;20048;-34
2023/04/25 10:39:42;;;;;;;1.70;0.90;;;;;;;18.59;47.05;101708.47;5035690;28;20042;-34
2023/04/25 10:42:09;;;;;;;1.85;1.08;;;;;;;18.65;47.50;101715.97;5041345;28;20467;-34
2023/04/25 10:44:37;;;;;;;2.35;0.90;;;;;;;18.68;47.58;101719.25;5037796;28;20116;-35
2023/04/25 10:47:07;;;;;;;3.80;1.00;;;;;;;18.71;47.30;101716.31;5041779;28;20088;-35
2023/04/25 10:49:41;;;;;;;4.00;1.30;;;;;;;18.72;47.27;101719.84;5036096;28;20552;-34
2023/04/25 10:52:16;;;;;;;1.13;0.80;;;;;;;18.73;47.63;101733.16;5037303;28;20107;-34
2023/04/25 10:54:53;;;;;;;2.20;0.70;;;;;;;18.74;47.59;101726.78;5034970;28;20045;-37
2023/04/25 10:57:48;;;;;;;2.72;1.23;;;;;;;18.78;47.36;101731.91;5034725;28;20049;-35
2023/04/25 11:00:18;;;;;;;2.28;0.70;;;;;;;18.83;46.63;101724.28;5037501;28;20467;-34
2023/04/25 11:02:58;;;;;;;2.22;1.08;;;;;;;18.86;46.87;101724.84;5039769;28;20057;-34
2023/04/25 11:05:33;;;;;;;0.80;0.68;;;;;;;18.90;46.74;101725.44;5034310;28;20063;-33
2023/04/25 11:08:16;;;;;;;3.22;1.17;;;;;;;18.96;47.19;101730.22;5039118;28;20050;-34
2023/04/25 11:10:42;;;;;;;2.10;0.80;;;;;;;19.00;46.64;101728.97;5032988;28;20072;-34
2023/04/25 11:13:09;;;;;;;1.65;0.98;;;;;;;19.04;46.89;101727.69;5036069;28;20049;-34
2023/04/25 11:15:36;;;;;;;1.65;0.80;;;;;;;19.08;46.33;101737.19;5036483;28;20429;-34
2023/04/25 11:18:03;;;;;;;1.73;0.85;;;;;;;19.12;46.49;101730.53;5038582;28;20337;-34
2023/04/25 11:20:30;;;;;;;3.03;1.02;;;;;;;19.16;46.31;101726.59;5035786;28;20044;-34
2023/04/25 11:23:01;;;;;;;1.38;0.80;;;;;;;19.19;46.21;101733.53;5040363;28;20352;-35
2023/04/25 11:25:33;;;;;;;1.52;1.15;;;;;;;19.23;46.30;101725.06;5030474;28;20135;-34
2023/04/25 11:28:03;;;;;;;2.70;1.15;;;;;;;19.25;46.06;101724.91;5033174;28;20551;-34